createdAt,value
2022-09-21T00:01:15.087Z,99333.59
2022-09-21T00:03:42.228Z,99339.75
2022-09-21T00:06:09.219Z,99337.25
2022-09-21T00:08:36.230Z,99344.25
2022-09-21T00:11:05.554Z,99338.19
2022-09-21T00:13:33.411Z,99343.50
2022-09-21T00:16:00.459Z,99339.34
2022-09-21T00:18:27.449Z,99336.75
2022-09-21T00:20:54.491Z,99345.38
2022-09-21T00:23:21.595Z,99335.97
2022-09-21T00:25:48.598Z,99335.25
2022-09-21T00:28:15.654Z,99334.31
2022-09-21T00:30:42.643Z,99339.59
2022-09-21T00:33:09.642Z,99345.75
2022-09-21T00:35:36.686Z,99340.53
2022-09-21T00:38:03.750Z,99348.28
2022-09-21T00:40:30.870Z,99344.94
2022-09-21T00:42:57.909Z,99348.50
2022-09-21T00:45:24.930Z,99336.38
2022-09-21T00:47:52.035Z,99342.53
2022-09-21T00:50:19.085Z,99342.53
2022-09-21T00:52:46.074Z,99351.28
2022-09-21T00:55:13.065Z,99345.25
2022-09-21T00:57:40.774Z,99351.38
2022-09-21T01:00:08.649Z,99349.63
2022-09-21T01:02:35.657Z,99347.09
2022-09-21T01:05:02.652Z,99341.06
2022-09-21T01:07:29.650Z,99356.81
2022-09-21T01:09:57.291Z,99354.22
2022-09-21T01:12:24.798Z,99355.88
2022-09-21T01:14:51.785Z,99356.81
2022-09-21T01:17:18.786Z,99353.47
2022-09-21T01:19:45.911Z,99356.06
2022-09-21T01:22:12.917Z,99356.91
2022-09-21T01:24:40.048Z,99356.91
2022-09-21T01:27:07.057Z,99357.84
2022-09-21T01:29:34.121Z,99360.47
2022-09-21T01:32:01.122Z,99352.63
2022-09-21T01:34:28.109Z,99350.88
2022-09-21T01:36:55.236Z,99353.59
2022-09-21T01:39:22.237Z,99356.19
2022-09-21T01:41:49.226Z,99351.06
2022-09-21T01:44:16.262Z,99348.38
2022-09-21T01:46:43.254Z,99347.63
2022-09-21T01:49:10.686Z,99355.56
2022-09-21T01:51:37.683Z,99357.22
2022-09-21T01:54:04.996Z,99359.81
2022-09-21T01:56:32.023Z,99363.38
2022-09-21T01:58:59.025Z,99374.63
2022-09-21T02:01:26.024Z,99369.53
2022-09-21T02:03:53.090Z,99370.44
2022-09-21T02:06:20.195Z,99367.75
2022-09-21T02:08:47.188Z,99374.75
2022-09-21T02:11:14.230Z,99371.28
2022-09-21T02:13:41.547Z,99372.22
2022-09-21T02:16:08.917Z,99367.84
2022-09-21T02:18:35.970Z,99369.53
2022-09-21T02:21:03.049Z,99366.94
2022-09-21T02:23:31.420Z,99370.44
2022-09-21T02:25:58.418Z,99364.53
2022-09-21T02:28:25.542Z,99367.13
2022-09-21T02:30:52.577Z,99362.75
2022-09-21T02:33:19.566Z,99365.34
2022-09-21T02:35:46.559Z,99370.56
2022-09-21T02:38:13.546Z,99371.50
2022-09-21T02:40:40.566Z,99370.66
2022-09-21T02:43:07.550Z,99362.94
2022-09-21T02:45:34.780Z,99367.13
2022-09-21T02:48:01.817Z,99363.78
2022-09-21T02:50:28.809Z,99366.38
2022-09-21T02:52:55.900Z,99362.94
2022-09-21T02:55:22.941Z,99362.94
2022-09-21T02:57:49.930Z,99369.00
2022-09-21T03:00:16.976Z,99362.94
2022-09-21T03:02:44.031Z,99369.94
2022-09-21T03:05:11.026Z,99363.88
2022-09-21T03:07:38.047Z,99373.25
2022-09-21T03:10:05.042Z,99365.66
2022-09-21T03:12:32.751Z,99371.72
2022-09-21T03:15:00.216Z,99376.09
2022-09-21T03:17:27.820Z,99379.53
2022-09-21T03:19:55.278Z,99379.53
2022-09-21T03:22:22.341Z,99378.69
2022-09-21T03:24:49.377Z,99377.84
2022-09-21T03:27:16.370Z,99377.00
2022-09-21T03:29:43.434Z,99371.78
2022-09-21T03:32:10.468Z,99385.66
2022-09-21T03:34:37.503Z,99384.00
2022-09-21T03:37:04.512Z,99380.44
2022-09-21T03:39:31.868Z,99384.09
2022-09-21T03:41:58.869Z,99387.44
2022-09-21T03:44:25.891Z,99384.94
2022-09-21T03:46:52.902Z,99385.75
2022-09-21T03:49:19.902Z,99382.34
2022-09-21T03:51:46.912Z,99376.38
2022-09-21T03:54:13.918Z,99380.66
2022-09-21T03:56:41.037Z,99385.06
2022-09-21T03:59:11.878Z,99392.88
2022-09-21T04:01:40.362Z,99392.00
2022-09-21T04:04:07.385Z,99390.25
2022-09-21T04:06:34.373Z,99396.38
2022-09-21T04:09:02.987Z,99404.22
2022-09-21T04:11:30.168Z,99408.59
2022-09-21T04:13:57.371Z,99405.97
2022-09-21T04:16:24.562Z,99405.97
2022-09-21T04:18:51.546Z,99406.09
2022-09-21T04:21:18.583Z,99405.97
2022-09-21T04:23:45.605Z,99406.94
2022-09-21T04:26:13.408Z,99417.34
2022-09-21T04:28:40.405Z,99410.38
2022-09-21T04:31:07.415Z,99405.25
2022-09-21T04:33:34.640Z,99414.00
2022-09-21T04:36:01.969Z,99413.91
2022-09-21T04:38:28.998Z,99418.28
2022-09-21T04:40:56.161Z,99421.81
2022-09-21T04:43:23.313Z,99428.78
2022-09-21T04:45:50.366Z,99432.22
2022-09-21T04:48:18.052Z,99431.41
2022-09-21T04:50:45.055Z,99439.13
2022-09-21T04:53:12.142Z,99427.97
2022-09-21T04:55:39.146Z,99424.53
2022-09-21T04:58:06.134Z,99429.75
2022-09-21T05:00:33.686Z,99427.13
2022-09-21T05:03:00.690Z,99441.81
2022-09-21T05:05:27.687Z,99436.72
2022-09-21T05:07:54.783Z,99444.53
2022-09-21T05:10:21.829Z,99443.72
2022-09-21T05:12:48.825Z,99441.09
2022-09-21T05:15:15.835Z,99449.75
2022-09-21T05:17:42.979Z,99448.94
2022-09-21T05:20:10.031Z,99454.13
2022-09-21T05:22:37.419Z,99449.94
2022-09-21T05:25:04.512Z,99455.06
2022-09-21T05:27:31.510Z,99455.06
2022-09-21T05:29:58.683Z,99457.66
2022-09-21T05:32:26.181Z,99453.38
2022-09-21T05:34:53.249Z,99463.81
2022-09-21T05:37:20.416Z,99466.41
2022-09-21T05:39:47.405Z,99462.16
2022-09-21T05:42:14.483Z,99469.97
2022-09-21T05:44:41.498Z,99468.31
2022-09-21T05:47:08.522Z,99467.44
2022-09-21T05:49:35.589Z,99471.72
2022-09-21T05:52:02.581Z,99470.91
2022-09-21T05:54:29.594Z,99474.34
2022-09-21T05:56:56.746Z,99470.03
2022-09-21T05:59:23.781Z,99470.03
2022-09-21T06:01:51.034Z,99471.81
2022-09-21T06:04:18.080Z,99475.38
2022-09-21T06:06:45.139Z,99479.63
2022-09-21T06:09:12.152Z,99476.19
2022-09-21T06:11:39.151Z,99482.34
2022-09-21T06:14:06.623Z,99482.34
2022-09-21T06:16:33.745Z,99485.69
2022-09-21T06:19:00.776Z,99489.16
2022-09-21T06:21:27.799Z,99486.63
2022-09-21T06:23:54.786Z,99484.97
2022-09-21T06:26:21.839Z,99488.38
2022-09-21T06:28:49.066Z,99484.13
2022-09-21T06:31:16.064Z,99485.91
2022-09-21T06:33:47.467Z,99489.34
2022-09-21T06:36:15.182Z,99476.38
2022-09-21T06:38:42.192Z,99485.91
2022-09-21T06:41:09.186Z,99488.50
2022-09-21T06:43:36.195Z,99489.34
2022-09-21T06:46:03.293Z,99490.25
2022-09-21T06:48:30.335Z,99490.25
2022-09-21T06:50:57.881Z,99491.09
2022-09-21T06:53:24.874Z,99497.22
2022-09-21T06:55:52.381Z,99494.53
2022-09-21T06:58:19.373Z,99497.16
2022-09-21T07:00:46.619Z,99502.38
2022-09-21T07:03:13.716Z,99504.13
2022-09-21T07:05:40.733Z,99502.44
2022-09-21T07:10:04.914Z,99507.66
2022-09-21T07:10:54.775Z,99507.66
2022-09-21T07:13:21.794Z,99512.03
2022-09-21T07:15:53.182Z,99512.03
2022-09-21T07:18:21.219Z,99513.69
2022-09-21T07:20:49.188Z,99513.69
2022-09-21T07:23:16.194Z,99515.47
2022-09-21T07:25:43.905Z,99507.66
2022-09-21T07:28:11.042Z,99516.31
2022-09-21T07:30:38.243Z,99512.03
2022-09-21T07:33:05.234Z,99522.38
2022-09-21T07:35:32.227Z,99509.25
2022-09-21T07:37:59.309Z,99510.53
2022-09-21T07:40:26.323Z,99517.31
2022-09-21T07:42:53.389Z,99512.13
2022-09-21T07:45:20.419Z,99512.00
2022-09-21T07:47:47.518Z,99510.16
2022-09-21T07:50:14.722Z,99510.97
2022-09-21T07:52:42.183Z,99508.25
2022-09-21T07:55:09.181Z,99510.75
2022-09-21T07:57:54.935Z,99515.06
2022-09-21T08:00:22.489Z,99514.00
2022-09-21T08:02:49.584Z,99509.66
2022-09-21T08:05:16.695Z,99506.09
2022-09-21T08:07:43.727Z,99510.38
2022-09-21T08:10:11.010Z,99512.91
2022-09-21T08:12:38.181Z,99511.84
2022-09-21T08:15:05.183Z,99514.56
2022-09-21T08:17:32.292Z,99514.94
2022-09-21T08:19:59.295Z,99515.06
2022-09-21T08:22:26.295Z,99519.31
2022-09-21T08:24:53.288Z,99517.75
2022-09-21T08:27:20.372Z,99523.78
2022-09-21T08:29:47.394Z,99516.91
2022-09-21T08:32:33.097Z,99518.56
2022-09-21T08:35:01.382Z,99519.22
2022-09-21T08:37:29.484Z,99512.97
2022-09-21T08:39:56.479Z,99524.16
2022-09-21T08:42:23.478Z,99516.34
2022-09-21T08:44:50.494Z,99517.25
2022-09-21T08:47:17.487Z,99517.06
2022-09-21T08:49:44.487Z,99516.97
2022-09-21T08:52:14.766Z,99518.53
2022-09-21T08:54:42.726Z,99522.63
2022-09-21T08:57:09.727Z,99515.63
2022-09-21T08:59:36.739Z,99524.31
2022-09-21T09:02:04.167Z,99525.13
2022-09-21T09:04:31.258Z,99524.31
2022-09-21T09:07:01.495Z,99521.78
2022-09-21T09:09:28.688Z,99527.75
2022-09-21T09:11:55.731Z,99528.19
2022-09-21T09:14:22.791Z,99523.69
2022-09-21T09:16:49.852Z,99525.19
2022-09-21T09:19:16.871Z,99519.69
2022-09-21T09:21:43.894Z,99525.66
2022-09-21T09:24:10.945Z,99526.38
2022-09-21T09:26:39.899Z,99525.34
2022-09-21T09:29:06.902Z,99526.19
2022-09-21T09:31:34.063Z,99521.78
2022-09-21T09:34:01.145Z,99521.59
2022-09-21T09:36:53.820Z,99518.78
2022-09-21T09:39:15.452Z,99516.06
2022-09-21T09:41:42.459Z,99514.41
2022-09-21T09:44:09.476Z,99516.94
2022-09-21T09:46:36.572Z,99510.75
2022-09-21T09:49:03.583Z,99509.94
2022-09-21T09:51:30.688Z,99504.91
2022-09-21T09:53:57.695Z,99499.91
2022-09-21T09:56:24.687Z,99502.31
2022-09-21T09:58:51.714Z,99497.91
2022-09-21T10:01:18.789Z,99492.50
2022-09-21T10:03:46.187Z,99498.56
2022-09-21T10:06:13.182Z,99492.50
2022-09-21T10:08:41.972Z,99488.94
2022-09-21T10:11:09.072Z,99480.19
2022-09-21T10:13:36.107Z,99482.72
2022-09-21T10:16:03.141Z,99487.81
2022-09-21T10:18:30.815Z,99483.53
2022-09-21T10:20:57.901Z,99475.72
2022-09-21T10:23:24.927Z,99479.03
2022-09-21T10:25:51.965Z,99476.44
2022-09-21T10:28:18.979Z,99475.50
2022-09-21T10:30:46.029Z,99468.50
2022-09-21T10:33:13.445Z,99476.44
2022-09-21T10:35:40.444Z,99479.16
2022-09-21T10:38:07.517Z,99469.66
2022-09-21T10:40:34.579Z,99468.00
2022-09-21T10:43:01.694Z,99464.53
2022-09-21T10:45:28.750Z,99473.22
2022-09-21T10:47:55.746Z,99470.38
2022-09-21T10:50:22.774Z,99467.69
2022-09-21T10:52:49.878Z,99465.78
2022-09-21T10:55:16.878Z,99474.38
2022-09-21T10:57:43.920Z,99464.88
2022-09-21T11:00:10.945Z,99465.78
2022-09-21T11:02:39.125Z,99465.69
2022-09-21T11:05:06.201Z,99459.41
2022-09-21T11:07:34.172Z,99465.28
2022-09-21T11:10:01.237Z,99468.63
2022-09-21T11:12:28.246Z,99461.50
2022-09-21T11:14:55.311Z,99454.44
2022-09-21T11:17:22.313Z,99456.09
2022-09-21T11:19:49.453Z,99449.97
2022-09-21T11:22:16.588Z,99455.06
2022-09-21T11:24:43.627Z,99451.50
2022-09-21T11:27:11.166Z,99449.63
2022-09-21T11:29:38.214Z,99448.69
2022-09-21T11:32:06.119Z,99452.97
2022-09-21T11:34:33.851Z,99445.03
2022-09-21T11:37:00.838Z,99444.09
2022-09-21T11:39:27.838Z,99437.09
2022-09-21T11:41:55.084Z,99436.06
2022-09-21T11:44:22.157Z,99434.28
2022-09-21T11:46:49.188Z,99416.84
2022-09-21T11:49:16.996Z,99424.56
2022-09-21T11:51:45.000Z,99423.09
2022-09-21T11:54:12.982Z,99423.41
2022-09-21T11:56:43.879Z,99424.25
2022-09-21T11:59:11.063Z,99416.53
2022-09-21T12:01:38.062Z,99416.41
2022-09-21T12:04:05.095Z,99415.78
2022-09-21T12:06:32.311Z,99412.28
2022-09-21T12:08:59.311Z,99411.31
2022-09-21T12:11:26.360Z,99410.38
2022-09-21T12:13:53.378Z,99404.31
2022-09-21T12:16:20.503Z,99405.16
2022-09-21T12:18:48.258Z,99394.63
2022-09-21T12:21:15.267Z,99398.91
2022-09-21T12:23:42.359Z,99396.38
2022-09-21T12:26:09.631Z,99385.09
2022-09-21T12:28:37.615Z,99392.09
2022-09-21T12:31:05.165Z,99385.94
2022-09-21T12:33:33.170Z,99387.00
2022-09-21T12:36:00.211Z,99378.34
2022-09-21T12:38:27.331Z,99386.16
2022-09-21T12:40:54.432Z,99371.34
2022-09-21T12:43:21.494Z,99369.56
2022-09-21T12:45:48.526Z,99379.16
2022-09-21T12:48:15.628Z,99377.41
2022-09-21T12:50:43.616Z,99378.22
2022-09-21T12:53:10.622Z,99374.78
2022-09-21T12:55:37.643Z,99374.47
2022-09-21T12:58:15.187Z,99372.47
2022-09-21T13:00:43.048Z,99376.75
2022-09-21T13:03:10.656Z,99375.91
2022-09-21T13:05:37.755Z,99373.91
2022-09-21T13:08:04.813Z,99367.53
2022-09-21T13:10:31.843Z,99367.53
2022-09-21T13:12:59.952Z,99361.59
2022-09-21T13:15:27.394Z,99363.28
2022-09-21T13:17:54.715Z,99355.44
2022-09-21T13:20:21.761Z,99364.09
2022-09-21T13:22:49.054Z,99361.50
2022-09-21T13:25:16.059Z,99352.63
2022-09-21T13:27:43.102Z,99355.31
2022-09-21T13:30:10.134Z,99357.84
2022-09-21T13:32:37.639Z,99352.63
2022-09-21T13:35:04.639Z,99352.63
2022-09-21T13:37:31.729Z,99346.44
2022-09-21T13:39:58.737Z,99347.19
2022-09-21T13:42:25.726Z,99347.19
2022-09-21T13:44:52.730Z,99341.00
2022-09-21T13:47:19.721Z,99338.41
2022-09-21T13:49:46.743Z,99334.00
2022-09-21T13:52:13.755Z,99331.28
2022-09-21T13:54:40.751Z,99325.44
2022-09-21T13:57:09.552Z,99323.78
2022-09-21T13:59:36.620Z,99329.81
2022-09-21T14:02:03.868Z,99327.34
2022-09-21T14:04:30.954Z,99323.78
2022-09-21T14:06:57.964Z,99333.38
2022-09-21T14:09:24.997Z,99328.16
2022-09-21T14:11:52.435Z,99329.13
2022-09-21T14:14:19.514Z,99330.16
2022-09-21T14:16:47.404Z,99323.28
2022-09-21T14:19:14.672Z,99328.50
2022-09-21T14:21:41.666Z,99327.56
2022-09-21T14:24:09.023Z,99323.28
2022-09-21T14:26:36.066Z,99324.13
2022-09-21T14:29:03.447Z,99325.44
2022-09-21T14:31:30.467Z,99329.75
2022-09-21T14:33:58.642Z,99326.50
2022-09-21T14:36:28.832Z,99325.78
2022-09-21T14:38:58.283Z,99321.38
2022-09-21T14:41:25.351Z,99323.16
2022-09-21T14:43:52.993Z,99319.72
2022-09-21T14:46:20.070Z,99317.94
2022-09-21T14:48:50.202Z,99311.56
2022-09-21T14:51:18.387Z,99312.09
2022-09-21T14:53:45.442Z,99314.69
2022-09-21T14:56:12.456Z,99308.72
2022-09-21T14:58:42.927Z,99310.50
2022-09-21T15:01:12.051Z,99306.13
2022-09-21T15:03:39.762Z,99306.13
2022-09-21T15:06:26.799Z,99301.72
2022-09-21T15:09:12.434Z,99299.25
2022-09-21T15:11:39.480Z,99298.28
2022-09-21T15:14:06.475Z,99294.03
2022-09-21T15:16:35.606Z,99291.41
2022-09-21T15:19:04.274Z,99287.97
2022-09-21T15:21:32.906Z,99289.75
2022-09-21T15:24:00.255Z,99279.31
2022-09-21T15:26:29.370Z,99275.75
2022-09-21T15:29:11.523Z,99279.06
2022-09-21T15:31:38.677Z,99275.53
2022-09-21T15:34:05.766Z,99268.63
2022-09-21T15:36:34.211Z,99274.44
2022-09-21T15:39:01.218Z,99275.41
2022-09-21T15:41:28.226Z,99276.97
2022-09-21T15:43:57.977Z,99275.28
2022-09-21T15:46:25.019Z,99270.19
2022-09-21T15:48:52.344Z,99272.66
2022-09-21T15:51:22.252Z,99274.25
2022-09-21T15:53:49.294Z,99277.47
2022-09-21T15:56:16.303Z,99274.97
2022-09-21T15:58:45.888Z,99271.63
2022-09-21T16:01:12.923Z,99272.59
2022-09-21T16:03:40.053Z,99275.28
2022-09-21T16:06:07.099Z,99274.44
2022-09-21T16:08:34.514Z,99272.78
2022-09-21T16:11:01.528Z,99276.25
2022-09-21T16:13:47.577Z,99271.13
2022-09-21T16:16:14.542Z,99272.78
2022-09-21T16:18:43.076Z,99266.75
2022-09-21T16:21:10.316Z,99268.41
2022-09-21T16:23:39.480Z,99270.78
2022-09-21T16:26:06.580Z,99270.78
2022-09-21T16:28:33.662Z,99277.81
2022-09-21T16:31:00.797Z,99276.84
2022-09-21T16:33:27.823Z,99279.47
2022-09-21T16:35:56.697Z,99285.50
2022-09-21T16:38:23.748Z,99282.06
2022-09-21T16:40:54.037Z,99285.50
2022-09-21T16:43:23.255Z,99291.34
2022-09-21T16:45:50.268Z,99284.34
2022-09-21T16:48:17.274Z,99286.25
2022-09-21T16:50:44.283Z,99292.28
2022-09-21T16:53:11.313Z,99289.69
2022-09-21T16:55:38.311Z,99289.81
2022-09-21T16:58:05.355Z,99292.41
2022-09-21T17:00:32.479Z,99287.19
2022-09-21T17:03:02.341Z,99287.91
2022-09-21T17:05:29.388Z,99289.69
2022-09-21T17:07:56.880Z,99281.03
2022-09-21T17:10:29.198Z,99293.25
2022-09-21T17:13:03.208Z,99295.75
2022-09-21T17:15:32.599Z,99296.78
2022-09-21T17:17:59.598Z,99297.66
2022-09-21T17:20:26.612Z,99297.75
2022-09-21T17:22:53.620Z,99291.69
2022-09-21T17:25:20.636Z,99297.75
2022-09-21T17:27:47.622Z,99295.03
2022-09-21T17:30:15.676Z,99293.25
2022-09-21T17:32:43.178Z,99296.78
2022-09-21T17:35:10.230Z,99297.66
2022-09-21T17:37:38.339Z,99299.41
2022-09-21T17:40:10.524Z,99292.50
2022-09-21T17:42:37.983Z,99292.50
2022-09-21T17:45:06.849Z,99300.34
2022-09-21T17:47:34.995Z,99301.31
2022-09-21T17:50:02.461Z,99303.09
2022-09-21T17:52:48.109Z,99310.09
2022-09-21T17:55:15.117Z,99308.31
2022-09-21T17:57:42.141Z,99309.13
2022-09-21T18:00:10.079Z,99311.75
2022-09-21T18:02:46.191Z,99316.97
2022-09-21T18:05:13.236Z,99315.19
2022-09-21T18:07:41.196Z,99314.34
2022-09-21T18:10:08.191Z,99318.75
2022-09-21T18:12:37.387Z,99324.69
2022-09-21T18:15:05.147Z,99323.13
2022-09-21T18:17:33.286Z,99322.28
2022-09-21T18:20:00.302Z,99317.19
2022-09-21T18:22:27.298Z,99318.84
2022-09-21T18:24:54.740Z,99322.41
2022-09-21T18:27:23.181Z,99323.22
2022-09-21T18:29:50.187Z,99324.19
2022-09-21T18:32:17.207Z,99329.41
2022-09-21T18:34:44.435Z,99333.88
2022-09-21T18:37:12.922Z,99325.97
2022-09-21T18:39:40.091Z,99326.06
2022-09-21T18:42:07.121Z,99332.97
2022-09-21T18:44:34.120Z,99334.75
2022-09-21T18:47:01.198Z,99329.63
2022-09-21T18:49:29.059Z,99331.41
2022-09-21T18:51:57.103Z,99329.91
2022-09-21T18:54:24.301Z,99334.91
2022-09-21T18:56:51.306Z,99336.47
2022-09-21T18:59:18.348Z,99342.41
2022-09-21T19:01:45.518Z,99342.31
2022-09-21T19:04:12.660Z,99337.19
2022-09-21T19:06:39.790Z,99340.63
2022-09-21T19:09:07.032Z,99341.56
2022-09-21T19:11:34.794Z,99342.13
2022-09-21T19:14:01.916Z,99342.19
2022-09-21T19:16:28.938Z,99344.06
2022-09-21T19:18:55.995Z,99339.28
2022-09-21T19:21:23.023Z,99347.44
2022-09-21T19:23:50.050Z,99343.22
2022-09-21T19:26:18.167Z,99344.09
2022-09-21T19:28:45.175Z,99342.22
2022-09-21T19:31:12.243Z,99345.84
2022-09-21T19:33:49.854Z,99341.56
2022-09-21T19:36:17.332Z,99345.97
2022-09-21T19:38:44.342Z,99343.34
2022-09-21T19:41:11.359Z,99342.41
2022-09-21T19:43:38.405Z,99342.41
2022-09-21T19:46:05.561Z,99345.13
2022-09-21T19:48:34.318Z,99347.63
2022-09-21T19:51:01.324Z,99343.22
2022-09-21T19:53:47.293Z,99353.81
2022-09-21T19:56:32.749Z,99341.28
2022-09-21T19:59:18.595Z,99344.94
2022-09-21T20:01:49.589Z,99346.94
2022-09-21T20:04:16.616Z,99347.91
2022-09-21T20:06:44.057Z,99339.44
2022-09-21T20:09:11.050Z,99349.06
2022-09-21T20:11:38.052Z,99339.66
2022-09-21T20:14:06.357Z,99338.94
2022-09-21T20:16:33.430Z,99343.44
2022-09-21T20:19:00.534Z,99342.59
2022-09-21T20:21:27.518Z,99345.22
2022-09-21T20:23:54.794Z,99345.22
2022-09-21T20:26:23.531Z,99343.44
2022-09-21T20:28:52.092Z,99347.81
2022-09-21T20:31:19.196Z,99352.22
2022-09-21T20:33:46.303Z,99355.84
2022-09-21T20:36:15.227Z,99362.16
2022-09-21T20:38:42.347Z,99360.56
2022-09-21T20:41:09.372Z,99360.78
2022-09-21T20:43:36.382Z,99354.00
2022-09-21T20:46:03.484Z,99357.66
2022-09-21T20:48:30.530Z,99353.41
2022-09-21T20:50:59.058Z,99356.22
2022-09-21T20:53:26.111Z,99355.38
2022-09-21T20:55:53.129Z,99358.09
2022-09-21T20:58:20.138Z,99352.16
2022-09-21T21:00:47.146Z,99349.63
2022-09-21T21:03:14.406Z,99360.06
2022-09-21T21:05:41.626Z,99353.31
2022-09-21T21:08:09.151Z,99352.56
2022-09-21T21:10:37.096Z,99353.53
2022-09-21T21:13:04.175Z,99358.81
2022-09-21T21:15:31.909Z,99352.06
2022-09-21T21:17:59.083Z,99356.41
2022-09-21T21:20:26.110Z,99352.28
2022-09-21T21:22:53.760Z,99355.81
2022-09-21T21:25:20.786Z,99351.53
2022-09-21T21:27:47.806Z,99350.81
2022-09-21T21:30:15.548Z,99352.59
2022-09-21T21:32:42.960Z,99348.28
2022-09-21T21:35:10.026Z,99357.06
2022-09-21T21:37:37.450Z,99358.00
2022-09-21T21:40:04.504Z,99360.63
2022-09-21T21:42:31.732Z,99354.66
2022-09-21T21:44:58.726Z,99346.94
2022-09-21T21:47:39.245Z,99343.59
2022-09-21T21:50:07.460Z,99347.16
2022-09-21T21:52:34.468Z,99344.53
2022-09-21T21:55:02.457Z,99342.06
2022-09-21T21:57:29.562Z,99341.19
2022-09-21T21:59:56.563Z,99344.75
2022-09-21T22:02:24.323Z,99343.09
2022-09-21T22:04:51.395Z,99348.44
2022-09-21T22:07:18.396Z,99344.97
2022-09-21T22:09:45.390Z,99346.72
2022-09-21T22:12:12.388Z,99352.91
2022-09-21T22:14:39.674Z,99346.03
2022-09-21T22:17:06.766Z,99347.78
2022-09-21T22:19:33.798Z,99349.66
2022-09-21T22:22:00.812Z,99346.22
2022-09-21T22:24:27.858Z,99347.16
2022-09-21T22:26:54.867Z,99351.53
2022-09-21T22:29:21.881Z,99355.88
2022-09-21T22:31:49.014Z,99345.56
2022-09-21T22:34:16.094Z,99349.94
2022-09-21T22:36:46.156Z,99343.91
2022-09-21T22:39:13.215Z,99337.00
2022-09-21T22:41:40.256Z,99342.22
2022-09-21T22:44:07.251Z,99329.28
2022-09-21T22:46:34.270Z,99343.28
2022-09-21T22:49:01.310Z,99337.22
2022-09-21T22:51:28.422Z,99333.75
2022-09-21T22:53:55.417Z,99339.91
2022-09-21T22:56:22.488Z,99335.66
2022-09-21T22:58:49.479Z,99340.88
2022-09-21T23:01:19.757Z,99334.00
2022-09-21T23:03:46.873Z,99326.25
2022-09-21T23:06:13.944Z,99331.47
2022-09-21T23:08:41.665Z,99331.47
2022-09-21T23:11:08.670Z,99326.38
2022-09-21T23:13:35.741Z,99325.53
2022-09-21T23:16:03.037Z,99319.50
2022-09-21T23:18:30.139Z,99318.63
2022-09-21T23:20:57.159Z,99317.81
2022-09-21T23:23:25.035Z,99313.53
2022-09-21T23:25:52.029Z,99317.09
2022-09-21T23:28:19.048Z,99322.31
2022-09-21T23:30:46.215Z,99325.00
2022-09-21T23:33:13.348Z,99319.78
2022-09-21T23:35:40.361Z,99320.72
2022-09-21T23:38:07.365Z,99314.69
2022-09-21T23:40:34.513Z,99319.06
2022-09-21T23:43:01.622Z,99319.16
2022-09-21T23:45:28.614Z,99318.31
2022-09-21T23:47:55.609Z,99323.53
2022-09-21T23:50:22.618Z,99331.34
2022-09-21T23:52:49.632Z,99333.25
2022-09-21T23:55:16.636Z,99328.03
2022-09-21T23:57:43.650Z,99328.03
